SBCR

Corumbá International Airport

Corumbá, Brazil
TAF SBCR 160030Z 1606/1706 04007KT 9999 SCT040 TN25/1608Z TX35/1618Z RMK PEB
Issued Valid From Valid To
Dec-16 @ 00:30 UTC
(6 hours ago)
Dec-16 @ 06:00 UTC
(47 minutes ago)
Dec-17 @ 06:00 UTC
(in 23 hours)
Dec-16 @ 06:00 to Dec-17 @ 06:00
TAF SBCR 160030Z 1606/1706 04007KT 9999 SCT040 TN25/1608Z TX35/1618Z RMK PEB
Wind Visibility Clouds
40° at 7 knots 10,000+ meters
  • Scattered at 4,000' AGL
TAF SBCR 160030Z 1606/1706 04007KT 9999 SCT040 TN25/1608Z TX35/1618Z RMK PEB
Issued Dec-16 @ 00:30 UTC
(6 hours ago)
Valid From Dec-16 @ 06:00 UTC
(47 minutes ago)
Valid To Dec-17 @ 06:00 UTC
(in 23 hours)
Dec-16 @ 06:00 - Dec-17 @ 06:00
Wind Visibility
40° at 7 knots 10,000+ meters
Clouds
  • Scattered at 4,000' AGL